createdAt,value
2023-03-24T00:01:29.881Z,11.24
2023-03-24T00:03:59.332Z,11.21
2023-03-24T00:06:27.840Z,11.49
2023-03-24T00:08:56.135Z,11.28
2023-03-24T00:11:26.614Z,11.68
2023-03-24T00:13:58.708Z,11.78
2023-03-24T00:16:27.088Z,11.66
2023-03-24T00:18:55.651Z,11.79
2023-03-24T00:21:25.991Z,11.93
2023-03-24T00:23:55.971Z,11.83
2023-03-24T00:26:26.917Z,11.45
2023-03-24T00:28:57.265Z,11.64
2023-03-24T00:31:25.982Z,11.63
2023-03-24T00:33:55.025Z,11.46
2023-03-24T00:36:25.005Z,11.32
2023-03-24T00:38:54.513Z,11.06
2023-03-24T00:41:27.230Z,11.11
2023-03-24T00:43:59.358Z,10.80
2023-03-24T00:46:29.111Z,10.88
2023-03-24T00:49:02.519Z,10.79
2023-03-24T00:51:33.515Z,10.95
2023-03-24T00:54:02.443Z,11.01
2023-03-24T00:56:32.552Z,10.31
2023-03-24T00:59:03.412Z,10.79
2023-03-24T01:01:35.645Z,11.20
2023-03-24T01:04:06.228Z,10.41
2023-03-24T01:06:37.272Z,10.53
2023-03-24T01:09:06.892Z,10.45
2023-03-24T01:11:40.082Z,10.71
2023-03-24T01:14:11.345Z,10.97
2023-03-24T01:16:39.795Z,10.58
2023-03-24T01:19:09.485Z,10.75
2023-03-24T01:21:39.092Z,10.69
2023-03-24T01:24:07.895Z,10.88
2023-03-24T01:26:36.439Z,10.63
2023-03-24T01:29:04.848Z,10.64
2023-03-24T01:31:34.782Z,10.87
2023-03-24T01:34:03.210Z,10.95
2023-03-24T01:36:34.441Z,10.34
2023-03-24T01:39:02.840Z,10.65
2023-03-24T01:41:36.086Z,10.55
2023-03-24T01:44:26.182Z,10.71
2023-03-24T01:46:56.194Z,10.77
2023-03-24T01:49:27.240Z,10.78
2023-03-24T01:51:59.072Z,9.84
2023-03-24T01:54:31.948Z,9.05
2023-03-24T01:57:05.082Z,8.50
2023-03-24T01:59:36.945Z,8.30
2023-03-24T02:02:08.285Z,7.94
2023-03-24T02:04:40.645Z,8.35
2023-03-24T02:07:17.577Z,8.70
2023-03-24T02:09:45.978Z,8.95
2023-03-24T02:12:14.793Z,8.60
2023-03-24T02:14:43.394Z,8.66
2023-03-24T02:17:33.504Z,8.67
2023-03-24T02:20:31.757Z,9.24
2023-03-24T02:23:29.180Z,8.99
2023-03-24T02:26:30.627Z,9.05
2023-03-24T02:29:11.053Z,9.22
2023-03-24T02:32:01.236Z,8.97
2023-03-24T02:35:01.379Z,9.31
2023-03-24T02:37:58.840Z,9.49
2023-03-24T02:40:41.748Z,9.54
2023-03-24T02:43:21.005Z,9.59
2023-03-24T02:46:02.763Z,9.52
2023-03-24T02:48:38.663Z,9.50
2023-03-24T02:51:13.343Z,9.49
2023-03-24T02:53:53.402Z,9.56
2023-03-24T02:56:30.272Z,9.50
2023-03-24T02:59:04.270Z,9.42
2023-03-24T03:01:38.095Z,9.52
2023-03-24T03:04:10.439Z,9.35
2023-03-24T03:06:41.561Z,9.42
2023-03-24T03:09:14.706Z,8.42
2023-03-24T03:11:48.207Z,9.02
2023-03-24T03:14:21.707Z,9.32
2023-03-24T03:16:54.671Z,9.18
2023-03-24T03:19:29.297Z,9.17
2023-03-24T03:21:59.898Z,9.02
2023-03-24T03:24:33.627Z,9.28
2023-03-24T03:27:08.422Z,9.34
2023-03-24T03:29:40.153Z,9.36
2023-03-24T03:32:14.241Z,9.16
2023-03-24T03:34:47.537Z,9.05
2023-03-24T03:37:24.422Z,9.09
2023-03-24T03:39:57.816Z,9.32
2023-03-24T03:42:27.974Z,9.00
2023-03-24T03:44:56.366Z,9.04
2023-03-24T03:47:24.821Z,9.21
2023-03-24T03:49:53.368Z,9.19
2023-03-24T03:52:22.546Z,9.26
2023-03-24T03:54:52.433Z,9.24
2023-03-24T03:57:21.634Z,8.91
2023-03-24T03:59:51.361Z,9.48
2023-03-24T04:02:35.952Z,9.53
2023-03-24T04:05:27.690Z,9.45
2023-03-24T04:08:14.931Z,9.62
2023-03-24T04:11:14.963Z,9.13
2023-03-24T04:13:53.148Z,9.27
2023-03-24T04:16:33.772Z,9.15
2023-03-24T04:19:15.021Z,8.66
2023-03-24T04:21:59.465Z,8.92
2023-03-24T04:24:40.417Z,9.26
2023-03-24T04:27:17.209Z,9.28
2023-03-24T04:29:55.564Z,9.23
2023-03-24T04:32:32.694Z,9.10
2023-03-24T04:35:07.318Z,8.96
2023-03-24T04:37:38.684Z,9.14
2023-03-24T04:40:10.906Z,7.93
2023-03-24T04:42:45.455Z,7.49
2023-03-24T04:45:15.227Z,7.22
2023-03-24T04:47:49.086Z,7.03
2023-03-24T04:50:30.593Z,7.21
2023-03-24T04:53:00.632Z,7.61
2023-03-24T04:55:45.670Z,7.69
2023-03-24T04:58:14.175Z,7.90
2023-03-24T05:00:44.455Z,8.09
2023-03-24T05:03:15.764Z,8.11
2023-03-24T05:05:49.228Z,8.25
2023-03-24T05:08:19.069Z,8.09
2023-03-24T05:10:47.795Z,8.27
2023-03-24T05:13:16.673Z,8.29
2023-03-24T05:15:47.955Z,7.57
2023-03-24T05:18:17.676Z,7.73
2023-03-24T05:20:46.037Z,7.34
2023-03-24T05:23:14.365Z,7.47
2023-03-24T05:25:43.032Z,7.93
2023-03-24T05:28:11.559Z,8.38
2023-03-24T05:30:39.915Z,8.60
2023-03-24T05:33:08.200Z,8.96
2023-03-24T05:35:38.011Z,9.10
2023-03-24T05:38:06.260Z,9.43
2023-03-24T05:40:34.615Z,9.68
2023-03-24T05:43:02.947Z,9.62
2023-03-24T05:45:31.199Z,8.44
2023-03-24T05:47:59.494Z,8.26
2023-03-24T05:50:27.877Z,8.41
2023-03-24T05:52:57.650Z,8.68
2023-03-24T05:55:26.120Z,9.16
2023-03-24T05:57:54.486Z,8.52
2023-03-24T06:00:23.562Z,8.41
2023-03-24T06:02:52.674Z,8.81
2023-03-24T06:05:21.265Z,8.76
2023-03-24T06:07:49.655Z,8.92
2023-03-24T06:10:19.568Z,8.72
2023-03-24T06:12:47.840Z,9.66
2023-03-24T06:15:17.675Z,10.01
2023-03-24T06:17:47.824Z,10.40
2023-03-24T06:20:18.605Z,10.92
2023-03-24T06:22:47.906Z,10.89
2023-03-24T06:25:20.489Z,10.32
2023-03-24T06:27:48.816Z,11.06
2023-03-24T06:30:18.684Z,11.78
2023-03-24T06:32:47.738Z,11.89
2023-03-24T06:35:17.430Z,13.81
2023-03-24T06:37:46.214Z,14.16
2023-03-24T06:40:17.799Z,14.16
2023-03-24T06:42:47.619Z,14.86
2023-03-24T06:45:15.865Z,15.56
2023-03-24T06:47:44.243Z,15.78
2023-03-24T06:50:13.042Z,16.06
2023-03-24T06:52:42.045Z,15.20
2023-03-24T06:55:11.046Z,15.25
2023-03-24T06:57:39.351Z,15.20
2023-03-24T07:00:11.717Z,15.62
2023-03-24T07:02:40.613Z,16.10
2023-03-24T07:05:11.141Z,16.57
2023-03-24T07:10:14.171Z,15.25
2023-03-24T07:12:42.949Z,14.86
2023-03-24T07:15:12.964Z,16.39
2023-03-24T07:17:42.963Z,16.07
2023-03-24T07:20:12.112Z,17.63
2023-03-24T07:22:40.397Z,16.78
2023-03-24T07:25:09.727Z,17.97
2023-03-24T07:27:39.436Z,17.90
2023-03-24T07:30:10.427Z,17.86
2023-03-24T07:32:40.579Z,18.37
2023-03-24T07:35:10.902Z,19.06
2023-03-24T07:37:39.794Z,19.75
2023-03-24T07:40:12.305Z,19.58
2023-03-24T07:42:42.278Z,19.61
2023-03-24T07:45:12.038Z,18.79
2023-03-24T07:47:45.299Z,19.01
2023-03-24T07:50:14.824Z,19.22
2023-03-24T07:52:48.183Z,20.17
2023-03-24T07:55:16.932Z,18.79
2023-03-24T07:57:48.336Z,19.67
2023-03-24T08:00:18.263Z,19.46
2023-03-24T08:02:49.665Z,19.92
2023-03-24T08:05:19.695Z,20.39
2023-03-24T08:07:53.638Z,21.31
2023-03-24T08:10:24.309Z,20.63
2023-03-24T08:12:52.633Z,21.01
2023-03-24T08:15:21.494Z,21.62
2023-03-24T08:17:52.478Z,21.55
2023-03-24T08:20:21.774Z,21.36
2023-03-24T08:22:54.297Z,22.27
2023-03-24T08:25:24.939Z,21.36
2023-03-24T08:27:53.602Z,20.97
2023-03-24T08:30:23.490Z,21.21
2023-03-24T08:32:55.305Z,21.13
2023-03-24T08:35:26.342Z,21.37
2023-03-24T08:37:54.660Z,20.47
2023-03-24T08:40:25.624Z,20.71
2023-03-24T08:42:56.281Z,21.72
2023-03-24T08:45:27.593Z,20.82
2023-03-24T08:47:59.496Z,21.17
2023-03-24T08:50:32.130Z,21.95
2023-03-24T08:53:00.568Z,22.68
2023-03-24T08:55:29.313Z,22.39
2023-03-24T08:57:57.663Z,22.02
2023-03-24T09:00:26.432Z,23.04
2023-03-24T09:02:58.615Z,22.19
2023-03-24T09:05:41.524Z,23.79
2023-03-24T09:08:13.705Z,23.25
2023-03-24T09:10:42.571Z,22.50
2023-03-24T09:13:11.571Z,22.77
2023-03-24T09:15:40.104Z,22.93
2023-03-24T09:18:09.921Z,23.17
2023-03-24T09:20:38.257Z,24.28
2023-03-24T09:23:06.621Z,23.26
2023-03-24T09:25:34.921Z,23.58
2023-03-24T09:28:03.477Z,24.14
2023-03-24T09:30:33.974Z,25.30
2023-03-24T09:33:03.622Z,26.26
2023-03-24T09:35:33.437Z,26.86
2023-03-24T09:38:01.783Z,25.58
2023-03-24T09:40:32.287Z,25.92
2023-03-24T09:43:05.692Z,24.30
2023-03-24T09:45:38.852Z,23.95
2023-03-24T09:48:12.062Z,25.21
2023-03-24T09:50:48.143Z,25.30
2023-03-24T09:53:26.125Z,26.38
2023-03-24T09:55:54.514Z,27.12
2023-03-24T09:58:25.905Z,28.42
2023-03-24T10:00:56.198Z,27.04
2023-03-24T10:03:26.194Z,28.44
2023-03-24T10:06:00.164Z,28.76
2023-03-24T10:08:33.292Z,27.14
2023-03-24T10:11:05.900Z,27.40
2023-03-24T10:13:56.982Z,28.28
2023-03-24T10:16:32.011Z,27.17
2023-03-24T10:19:11.590Z,26.99
2023-03-24T10:21:48.013Z,28.47
2023-03-24T10:24:25.245Z,28.12
2023-03-24T10:27:02.348Z,27.26
2023-03-24T10:29:32.524Z,28.08
2023-03-24T10:32:04.075Z,28.54
2023-03-24T10:34:35.278Z,28.80
2023-03-24T10:37:06.189Z,28.81
2023-03-24T10:39:44.160Z,26.44
2023-03-24T10:42:19.539Z,27.37
2023-03-24T10:44:49.676Z,27.84
2023-03-24T10:47:22.399Z,28.46
2023-03-24T10:49:55.638Z,28.61
2023-03-24T10:52:26.011Z,29.17
2023-03-24T10:54:59.012Z,27.30
2023-03-24T10:57:29.292Z,29.37
2023-03-24T11:00:00.582Z,29.94
2023-03-24T11:02:31.864Z,28.63
2023-03-24T11:05:03.812Z,28.71
2023-03-24T11:07:37.522Z,30.05
2023-03-24T11:10:17.108Z,30.88
2023-03-24T11:13:02.748Z,27.15
2023-03-24T11:15:32.356Z,27.42
2023-03-24T11:18:02.852Z,26.86
2023-03-24T11:20:33.860Z,26.55
2023-03-24T11:23:07.800Z,28.78
2023-03-24T11:25:40.304Z,28.68
2023-03-24T11:28:10.659Z,28.67
2023-03-24T11:30:48.147Z,28.98
2023-03-24T11:33:35.659Z,27.89
2023-03-24T11:36:10.270Z,28.78
2023-03-24T11:38:41.231Z,28.88
2023-03-24T11:41:23.138Z,30.64
2023-03-24T11:43:51.408Z,32.00
2023-03-24T11:46:23.556Z,32.47
2023-03-24T11:48:58.135Z,31.50
2023-03-24T11:51:31.413Z,29.15
2023-03-24T11:54:03.606Z,29.63
2023-03-24T11:56:38.722Z,29.07
2023-03-24T11:59:15.857Z,29.95
2023-03-24T12:01:50.165Z,30.26
2023-03-24T12:04:28.894Z,31.90
2023-03-24T12:07:15.800Z,29.92
2023-03-24T12:09:51.899Z,29.88
2023-03-24T12:12:28.020Z,31.36
2023-03-24T12:15:27.288Z,30.70
2023-03-24T12:18:09.927Z,29.49
2023-03-24T12:20:45.433Z,28.57
2023-03-24T12:23:19.421Z,28.88
2023-03-24T12:26:08.026Z,31.10
2023-03-24T12:28:51.427Z,31.69
2023-03-24T12:31:46.658Z,32.80
2023-03-24T12:34:36.533Z,32.83
2023-03-24T12:37:11.272Z,31.90
2023-03-24T12:39:47.081Z,29.73
2023-03-24T12:42:18.968Z,29.60
2023-03-24T12:45:06.436Z,29.97
2023-03-24T12:47:51.590Z,30.42
2023-03-24T12:50:28.405Z,30.61
2023-03-24T12:53:27.630Z,29.29
2023-03-24T12:55:59.539Z,27.34
2023-03-24T12:58:36.649Z,26.54
2023-03-24T13:01:08.857Z,28.13
2023-03-24T13:03:41.669Z,28.65
2023-03-24T13:06:17.946Z,29.07
2023-03-24T13:08:54.547Z,28.12
2023-03-24T13:11:33.179Z,27.19
2023-03-24T13:14:05.077Z,26.49
2023-03-24T13:16:37.384Z,26.97
2023-03-24T13:19:14.285Z,26.29
2023-03-24T13:21:43.706Z,26.59
2023-03-24T13:24:15.276Z,26.68
2023-03-24T13:26:52.541Z,27.35
2023-03-24T13:29:45.717Z,27.82
2023-03-24T13:32:30.624Z,28.52
2023-03-24T13:35:06.680Z,28.09
2023-03-24T13:37:38.070Z,28.86
2023-03-24T13:40:12.353Z,29.86
2023-03-24T13:42:47.022Z,29.53
2023-03-24T13:45:42.912Z,29.72
2023-03-24T13:48:25.022Z,29.06
2023-03-24T13:50:58.168Z,28.45
2023-03-24T13:53:38.018Z,28.08
2023-03-24T13:56:09.116Z,28.57
2023-03-24T13:59:06.196Z,27.16
2023-03-24T14:01:38.745Z,27.52
2023-03-24T14:04:26.223Z,27.37
2023-03-24T14:06:55.881Z,26.67
2023-03-24T14:09:26.483Z,26.27
2023-03-24T14:12:19.136Z,26.57
2023-03-24T14:15:19.502Z,26.98
2023-03-24T14:17:50.820Z,28.03
2023-03-24T14:20:34.481Z,28.00
2023-03-24T14:23:04.560Z,28.25
2023-03-24T14:25:34.198Z,28.18
2023-03-24T14:28:19.897Z,28.44
2023-03-24T14:31:15.723Z,27.13
2023-03-24T14:34:03.341Z,27.09
2023-03-24T14:36:35.292Z,26.76
2023-03-24T14:39:22.445Z,26.66
2023-03-24T14:41:52.748Z,26.19
2023-03-24T14:44:54.606Z,26.40
2023-03-24T14:47:24.668Z,26.58
2023-03-24T14:49:56.070Z,26.27
2023-03-24T14:52:29.057Z,24.91
2023-03-24T14:54:59.877Z,24.39
2023-03-24T14:57:30.601Z,24.71
2023-03-24T15:00:10.699Z,24.77
2023-03-24T15:02:42.336Z,24.26
2023-03-24T15:05:25.222Z,24.16
2023-03-24T15:08:13.580Z,24.56
2023-03-24T15:10:46.457Z,24.02
2023-03-24T15:13:41.159Z,23.42
2023-03-24T15:16:19.618Z,24.17
2023-03-24T15:19:00.470Z,24.27
2023-03-24T15:21:34.951Z,23.78
2023-03-24T15:24:04.701Z,23.89
2023-03-24T15:26:33.594Z,23.47
2023-03-24T15:29:04.074Z,22.95
2023-03-24T15:31:33.236Z,23.12
2023-03-24T15:34:25.097Z,22.75
2023-03-24T15:36:57.810Z,22.61
2023-03-24T15:39:29.169Z,22.74
2023-03-24T15:41:57.544Z,22.48
2023-03-24T15:44:29.023Z,22.74
2023-03-24T15:46:59.419Z,21.24
2023-03-24T15:49:31.396Z,21.79
2023-03-24T15:52:03.353Z,21.71
2023-03-24T15:54:33.310Z,21.53
2023-03-24T15:57:04.139Z,21.42
2023-03-24T15:59:37.225Z,21.51
2023-03-24T16:02:12.825Z,21.23
2023-03-24T16:04:42.472Z,20.57
2023-03-24T16:07:29.745Z,20.26
2023-03-24T16:10:02.941Z,20.58
2023-03-24T16:12:31.347Z,20.06
2023-03-24T16:14:59.781Z,20.08
2023-03-24T16:17:28.190Z,19.69
2023-03-24T16:19:59.938Z,19.69
2023-03-24T16:22:29.920Z,19.92
2023-03-24T16:24:58.348Z,19.88
2023-03-24T16:27:26.686Z,20.06
2023-03-24T16:29:55.951Z,19.63
2023-03-24T16:32:24.366Z,18.66
2023-03-24T16:34:52.821Z,18.77
2023-03-24T16:37:21.069Z,19.12
2023-03-24T16:39:50.759Z,18.43
2023-03-24T16:42:19.027Z,18.08
2023-03-24T16:44:47.761Z,18.17
2023-03-24T16:47:16.105Z,18.00
2023-03-24T16:49:44.419Z,18.69
2023-03-24T16:52:14.180Z,18.30
2023-03-24T16:54:42.631Z,18.63
2023-03-24T16:57:12.441Z,18.18
2023-03-24T16:59:42.000Z,18.53
2023-03-24T17:02:11.468Z,18.36
2023-03-24T17:04:41.309Z,18.28
2023-03-24T17:07:09.899Z,18.26
2023-03-24T17:09:38.121Z,17.99
2023-03-24T17:12:06.717Z,18.14
2023-03-24T17:14:36.500Z,17.82
2023-03-24T17:17:11.579Z,17.46
2023-03-24T17:19:42.085Z,17.82
2023-03-24T17:22:11.796Z,17.67
2023-03-24T17:24:42.381Z,17.58
2023-03-24T17:27:14.439Z,17.56
2023-03-24T17:29:44.089Z,17.62
2023-03-24T17:32:12.480Z,17.64
2023-03-24T17:34:43.003Z,17.49
2023-03-24T17:37:11.404Z,17.24
2023-03-24T17:39:40.533Z,17.39
2023-03-24T17:42:09.008Z,17.28
2023-03-24T17:44:37.733Z,17.60
2023-03-24T17:47:07.615Z,17.35
2023-03-24T17:49:35.959Z,17.08
2023-03-24T17:52:04.425Z,17.24
2023-03-24T17:54:33.918Z,17.03
2023-03-24T17:57:02.346Z,16.89
2023-03-24T17:59:30.797Z,16.78
2023-03-24T18:01:59.082Z,16.70
2023-03-24T18:04:29.373Z,16.64
2023-03-24T18:06:58.313Z,16.64
2023-03-24T18:09:27.145Z,16.67
2023-03-24T18:11:55.548Z,16.87
2023-03-24T18:14:23.852Z,16.97
2023-03-24T18:16:52.190Z,16.75
2023-03-24T18:19:20.590Z,16.37
2023-03-24T18:21:50.352Z,16.56
2023-03-24T18:24:18.996Z,16.08
2023-03-24T18:26:49.201Z,16.61
2023-03-24T18:29:22.179Z,16.59
2023-03-24T18:31:50.572Z,16.49
2023-03-24T18:34:19.753Z,16.48
2023-03-24T18:36:50.253Z,16.44
2023-03-24T18:39:18.904Z,16.58
2023-03-24T18:41:48.173Z,16.51
2023-03-24T18:44:16.996Z,16.36
2023-03-24T18:46:45.548Z,16.08
2023-03-24T18:49:14.697Z,16.07
2023-03-24T18:51:43.626Z,15.98
2023-03-24T18:54:14.308Z,15.39
2023-03-24T18:56:42.779Z,15.61
2023-03-24T18:59:11.793Z,15.39
2023-03-24T19:01:40.380Z,15.72
2023-03-24T19:04:09.472Z,15.54
2023-03-24T19:06:42.497Z,15.72
2023-03-24T19:09:13.666Z,15.65
2023-03-24T19:11:43.534Z,15.65
2023-03-24T19:14:12.144Z,15.44
2023-03-24T19:16:40.560Z,15.30
2023-03-24T19:19:09.970Z,15.11
2023-03-24T19:21:38.577Z,14.95
2023-03-24T19:24:07.604Z,15.10
2023-03-24T19:26:37.412Z,14.92
2023-03-24T19:29:06.446Z,14.89
2023-03-24T19:31:35.250Z,14.88
2023-03-24T19:34:06.760Z,14.69
2023-03-24T19:36:35.330Z,14.86
2023-03-24T19:39:04.601Z,15.00
2023-03-24T19:41:32.942Z,14.93
2023-03-24T19:44:02.659Z,15.12
2023-03-24T19:46:33.774Z,15.32
2023-03-24T19:49:02.280Z,15.31
2023-03-24T19:51:30.833Z,15.40
2023-03-24T19:53:59.066Z,15.15
2023-03-24T19:56:27.403Z,15.13
2023-03-24T19:58:55.902Z,15.05
2023-03-24T20:01:26.159Z,14.99
2023-03-24T20:03:54.675Z,14.87
2023-03-24T20:06:22.989Z,14.96
2023-03-24T20:08:51.502Z,14.30
2023-03-24T20:11:19.989Z,14.32
2023-03-24T20:13:48.500Z,14.19
2023-03-24T20:16:16.771Z,13.86
2023-03-24T20:18:46.664Z,13.66
2023-03-24T20:21:20.640Z,14.11
2023-03-24T20:23:48.917Z,14.46
2023-03-24T20:26:17.345Z,14.30
2023-03-24T20:28:45.893Z,14.24
2023-03-24T20:31:15.073Z,14.06
2023-03-24T20:33:43.354Z,14.32
2023-03-24T20:36:13.182Z,14.25
2023-03-24T20:38:41.657Z,14.16
2023-03-24T20:41:10.141Z,14.10
2023-03-24T20:43:39.151Z,14.08
2023-03-24T20:46:11.718Z,13.29
2023-03-24T20:48:40.105Z,13.47
2023-03-24T20:51:08.568Z,13.80
2023-03-24T20:53:40.743Z,13.98
2023-03-24T20:56:13.374Z,14.05
2023-03-24T20:58:42.452Z,13.81
2023-03-24T21:01:20.759Z,13.43
2023-03-24T21:03:49.942Z,13.30
2023-03-24T21:06:19.360Z,13.31
2023-03-24T21:08:49.530Z,13.58
2023-03-24T21:11:17.911Z,12.85
2023-03-24T21:13:46.445Z,11.70
2023-03-24T21:16:15.148Z,13.58
2023-03-24T21:18:44.054Z,13.66
2023-03-24T21:21:13.558Z,13.63
2023-03-24T21:23:43.076Z,13.77
2023-03-24T21:26:15.839Z,13.82
2023-03-24T21:28:44.729Z,13.80
2023-03-24T21:31:18.142Z,12.69
2023-03-24T21:33:46.538Z,13.47
2023-03-24T21:36:15.791Z,13.64
2023-03-24T21:38:44.643Z,13.25
2023-03-24T21:41:14.396Z,13.73
2023-03-24T21:43:47.011Z,13.72
2023-03-24T21:46:20.758Z,13.72
2023-03-24T21:48:51.941Z,13.64
2023-03-24T21:51:24.152Z,13.00
2023-03-24T21:53:55.727Z,13.55
2023-03-24T21:56:25.604Z,13.54
2023-03-24T21:58:55.675Z,13.52
2023-03-24T22:01:24.583Z,13.38
2023-03-24T22:03:54.814Z,13.27
2023-03-24T22:06:23.962Z,13.22
2023-03-24T22:08:53.362Z,13.17
2023-03-24T22:11:25.130Z,13.13
2023-03-24T22:13:54.863Z,13.09
2023-03-24T22:16:23.133Z,12.98
2023-03-24T22:18:53.123Z,12.72
2023-03-24T22:21:21.755Z,12.86
2023-03-24T22:23:50.047Z,13.01
2023-03-24T22:26:18.356Z,13.06
2023-03-24T22:28:46.724Z,13.09
2023-03-24T22:31:18.036Z,12.93
2023-03-24T22:33:48.135Z,12.82
2023-03-24T22:36:16.504Z,12.82
2023-03-24T22:38:44.828Z,12.79
2023-03-24T22:41:14.271Z,12.50
2023-03-24T22:43:42.819Z,12.61
2023-03-24T22:46:12.110Z,12.25
2023-03-24T22:48:42.083Z,12.26
2023-03-24T22:51:12.659Z,12.24
2023-03-24T22:53:41.837Z,11.88
2023-03-24T22:56:10.589Z,12.17
2023-03-24T22:58:40.271Z,12.10
2023-03-24T23:01:09.787Z,11.23
2023-03-24T23:03:38.303Z,11.86
2023-03-24T23:06:09.315Z,11.84
2023-03-24T23:08:38.782Z,11.68
2023-03-24T23:11:08.750Z,11.37
2023-03-24T23:13:38.906Z,11.67
2023-03-24T23:16:08.288Z,12.09
2023-03-24T23:18:37.025Z,12.17
2023-03-24T23:21:09.387Z,12.18
2023-03-24T23:23:38.653Z,12.01
2023-03-24T23:26:25.224Z,11.99
2023-03-24T23:28:55.177Z,11.92
2023-03-24T23:31:25.100Z,11.97
2023-03-24T23:33:56.211Z,11.68
2023-03-24T23:36:28.574Z,11.89
2023-03-24T23:38:57.025Z,11.89
2023-03-24T23:41:25.483Z,11.82
2023-03-24T23:43:55.970Z,11.81
2023-03-24T23:46:25.200Z,11.41
2023-03-24T23:48:53.605Z,10.92
2023-03-24T23:51:22.261Z,10.86
2023-03-24T23:53:52.108Z,11.25
2023-03-24T23:56:23.035Z,11.52
2023-03-24T23:58:51.346Z,11.43
